sensor_id;sensor_type;location;lat;lon;timestamp;P1;durP1;ratioP1;P2;durP2;ratioP2
66483;SDS011;53299;52.160;7.556;2022-12-07T00:01:32;4.95;;;1.70;;
66483;SDS011;53299;52.160;7.556;2022-12-07T00:04:01;3.60;;;1.37;;
66483;SDS011;53299;52.160;7.556;2022-12-07T00:06:28;4.55;;;1.70;;
66483;SDS011;53299;52.160;7.556;2022-12-07T00:08:53;4.27;;;1.60;;
66483;SDS011;53299;52.160;7.556;2022-12-07T00:11:19;3.73;;;1.40;;
66483;SDS011;53299;52.160;7.556;2022-12-07T00:13:46;4.28;;;1.60;;
66483;SDS011;53299;52.160;7.556;2022-12-07T00:16:16;4.40;;;1.50;;
66483;SDS011;53299;52.160;7.556;2022-12-07T00:18:43;3.88;;;1.40;;
66483;SDS011;53299;52.160;7.556;2022-12-07T00:21:11;4.47;;;1.65;;
66483;SDS011;53299;52.160;7.556;2022-12-07T00:23:41;3.87;;;1.40;;
66483;SDS011;53299;52.160;7.556;2022-12-07T00:26:15;4.28;;;1.60;;
66483;SDS011;53299;52.160;7.556;2022-12-07T00:28:49;4.28;;;1.60;;
66483;SDS011;53299;52.160;7.556;2022-12-07T00:31:23;3.75;;;1.30;;
66483;SDS011;53299;52.160;7.556;2022-12-07T00:33:50;3.47;;;1.40;;
66483;SDS011;53299;52.160;7.556;2022-12-07T00:36:16;3.67;;;1.40;;
66483;SDS011;53299;52.160;7.556;2022-12-07T00:38:46;4.35;;;1.20;;
66483;SDS011;53299;52.160;7.556;2022-12-07T00:41:29;3.60;;;1.30;;
66483;SDS011;53299;52.160;7.556;2022-12-07T00:43:55;3.80;;;1.30;;
66483;SDS011;53299;52.160;7.556;2022-12-07T00:46:21;3.03;;;1.20;;
66483;SDS011;53299;52.160;7.556;2022-12-07T00:48:48;4.10;;;1.38;;
66483;SDS011;53299;52.160;7.556;2022-12-07T00:51:14;3.55;;;1.30;;
66483;SDS011;53299;52.160;7.556;2022-12-07T00:53:41;3.63;;;1.30;;
66483;SDS011;53299;52.160;7.556;2022-12-07T00:56:07;3.47;;;1.30;;
66483;SDS011;53299;52.160;7.556;2022-12-07T00:58:40;3.85;;;1.33;;
66483;SDS011;53299;52.160;7.556;2022-12-07T01:01:05;3.27;;;1.30;;
66483;SDS011;53299;52.160;7.556;2022-12-07T01:03:32;3.70;;;1.30;;
66483;SDS011;53299;52.160;7.556;2022-12-07T01:05:58;4.30;;;1.20;;
66483;SDS011;53299;52.160;7.556;2022-12-07T01:08:24;3.20;;;1.25;;
66483;SDS011;53299;52.160;7.556;2022-12-07T01:10:58;2.70;;;1.10;;
66483;SDS011;53299;52.160;7.556;2022-12-07T01:13:28;3.20;;;1.20;;
66483;SDS011;53299;52.160;7.556;2022-12-07T01:15:56;3.17;;;1.10;;
66483;SDS011;53299;52.160;7.556;2022-12-07T01:18:23;4.00;;;1.40;;
66483;SDS011;53299;52.160;7.556;2022-12-07T01:21:00;2.80;;;1.10;;
66483;SDS011;53299;52.160;7.556;2022-12-07T01:23:27;3.33;;;1.30;;
66483;SDS011;53299;52.160;7.556;2022-12-07T01:26:00;3.00;;;1.17;;
66483;SDS011;53299;52.160;7.556;2022-12-07T01:28:27;3.35;;;1.33;;
66483;SDS011;53299;52.160;7.556;2022-12-07T01:30:56;3.07;;;1.20;;
66483;SDS011;53299;52.160;7.556;2022-12-07T01:33:49;3.00;;;1.08;;
66483;SDS011;53299;52.160;7.556;2022-12-07T01:36:20;3.40;;;1.38;;
66483;SDS011;53299;52.160;7.556;2022-12-07T01:38:55;2.72;;;1.08;;
66483;SDS011;53299;52.160;7.556;2022-12-07T01:41:23;3.05;;;1.20;;
66483;SDS011;53299;52.160;7.556;2022-12-07T01:46:52;2.88;;;1.00;;
66483;SDS011;53299;52.160;7.556;2022-12-07T01:52:02;3.88;;;1.15;;
66483;SDS011;53299;52.160;7.556;2022-12-07T01:54:35;3.00;;;1.10;;
66483;SDS011;53299;52.160;7.556;2022-12-07T01:57:01;3.33;;;1.20;;
66483;SDS011;53299;52.160;7.556;2022-12-07T01:59:29;3.42;;;1.02;;
66483;SDS011;53299;52.160;7.556;2022-12-07T02:01:55;3.90;;;1.20;;
66483;SDS011;53299;52.160;7.556;2022-12-07T02:04:21;2.85;;;1.02;;
66483;SDS011;53299;52.160;7.556;2022-12-07T02:06:47;3.22;;;1.23;;
66483;SDS011;53299;52.160;7.556;2022-12-07T02:09:13;3.10;;;1.05;;
66483;SDS011;53299;52.160;7.556;2022-12-07T02:11:38;3.73;;;1.40;;
66483;SDS011;53299;52.160;7.556;2022-12-07T02:14:05;2.75;;;1.20;;
66483;SDS011;53299;52.160;7.556;2022-12-07T02:32:03;3.00;;;1.20;;
66483;SDS011;53299;52.160;7.556;2022-12-07T02:40:15;3.70;;;1.17;;
66483;SDS011;53299;52.160;7.556;2022-12-07T02:42:53;3.33;;;1.02;;
66483;SDS011;53299;52.160;7.556;2022-12-07T02:45:25;2.90;;;1.10;;
66483;SDS011;53299;52.160;7.556;2022-12-07T02:47:55;3.07;;;1.10;;
66483;SDS011;53299;52.160;7.556;2022-12-07T02:50:24;2.55;;;1.10;;
66483;SDS011;53299;52.160;7.556;2022-12-07T02:52:49;3.33;;;1.02;;
66483;SDS011;53299;52.160;7.556;2022-12-07T02:55:15;2.60;;;1.00;;
66483;SDS011;53299;52.160;7.556;2022-12-07T03:00:24;3.43;;;1.30;;
66483;SDS011;53299;52.160;7.556;2022-12-07T03:08:02;2.97;;;1.17;;
66483;SDS011;53299;52.160;7.556;2022-12-07T03:13:35;4.15;;;1.38;;
66483;SDS011;53299;52.160;7.556;2022-12-07T03:18:42;3.42;;;1.20;;
66483;SDS011;53299;52.160;7.556;2022-12-07T03:21:16;3.20;;;1.27;;
66483;SDS011;53299;52.160;7.556;2022-12-07T03:23:45;3.95;;;1.30;;
66483;SDS011;53299;52.160;7.556;2022-12-07T03:26:16;4.70;;;1.30;;
66483;SDS011;53299;52.160;7.556;2022-12-07T03:28:45;4.22;;;1.30;;
66483;SDS011;53299;52.160;7.556;2022-12-07T03:31:25;3.58;;;1.35;;
66483;SDS011;53299;52.160;7.556;2022-12-07T03:36:50;3.72;;;1.10;;
66483;SDS011;53299;52.160;7.556;2022-12-07T03:39:38;3.95;;;1.10;;
66483;SDS011;53299;52.160;7.556;2022-12-07T03:42:07;3.40;;;0.93;;
66483;SDS011;53299;52.160;7.556;2022-12-07T03:44:35;3.65;;;1.25;;
66483;SDS011;53299;52.160;7.556;2022-12-07T03:47:05;3.80;;;1.30;;
66483;SDS011;53299;52.160;7.556;2022-12-07T03:49:51;3.78;;;1.20;;
66483;SDS011;53299;52.160;7.556;2022-12-07T03:52:39;3.33;;;1.13;;
66483;SDS011;53299;52.160;7.556;2022-12-07T03:55:15;3.85;;;1.15;;
66483;SDS011;53299;52.160;7.556;2022-12-07T03:57:45;3.13;;;1.10;;
66483;SDS011;53299;52.160;7.556;2022-12-07T04:00:14;3.00;;;1.10;;
66483;SDS011;53299;52.160;7.556;2022-12-07T04:02:39;4.20;;;1.30;;
66483;SDS011;53299;52.160;7.556;2022-12-07T04:05:06;3.73;;;1.17;;
66483;SDS011;53299;52.160;7.556;2022-12-07T04:07:32;3.70;;;1.05;;
66483;SDS011;53299;52.160;7.556;2022-12-07T04:09:57;3.80;;;1.20;;
66483;SDS011;53299;52.160;7.556;2022-12-07T04:12:22;3.50;;;1.13;;
66483;SDS011;53299;52.160;7.556;2022-12-07T04:14:48;3.50;;;1.00;;
66483;SDS011;53299;52.160;7.556;2022-12-07T04:17:14;4.43;;;1.30;;
66483;SDS011;53299;52.160;7.556;2022-12-07T04:19:39;3.53;;;0.90;;
66483;SDS011;53299;52.160;7.556;2022-12-07T04:22:04;3.97;;;1.20;;
66483;SDS011;53299;52.160;7.556;2022-12-07T04:24:31;3.50;;;1.10;;
66483;SDS011;53299;52.160;7.556;2022-12-07T04:26:57;3.80;;;1.20;;
66483;SDS011;53299;52.160;7.556;2022-12-07T04:29:22;3.15;;;1.20;;
66483;SDS011;53299;52.160;7.556;2022-12-07T04:31:48;4.07;;;1.13;;
66483;SDS011;53299;52.160;7.556;2022-12-07T04:34:14;2.80;;;0.93;;
66483;SDS011;53299;52.160;7.556;2022-12-07T04:36:40;3.53;;;1.10;;
66483;SDS011;53299;52.160;7.556;2022-12-07T04:39:06;2.80;;;1.10;;
66483;SDS011;53299;52.160;7.556;2022-12-07T04:41:32;4.57;;;1.30;;
66483;SDS011;53299;52.160;7.556;2022-12-07T04:44:01;2.63;;;1.13;;
66483;SDS011;53299;52.160;7.556;2022-12-07T04:46:29;3.38;;;1.00;;
66483;SDS011;53299;52.160;7.556;2022-12-07T04:48:55;3.60;;;1.00;;
66483;SDS011;53299;52.160;7.556;2022-12-07T04:51:22;3.47;;;1.30;;
66483;SDS011;53299;52.160;7.556;2022-12-07T04:53:49;3.22;;;1.20;;
66483;SDS011;53299;52.160;7.556;2022-12-07T04:56:15;3.03;;;0.97;;
66483;SDS011;53299;52.160;7.556;2022-12-07T04:58:42;3.42;;;1.10;;
66483;SDS011;53299;52.160;7.556;2022-12-07T05:01:08;3.70;;;1.05;;
66483;SDS011;53299;52.160;7.556;2022-12-07T05:03:33;3.70;;;1.20;;
66483;SDS011;53299;52.160;7.556;2022-12-07T05:05:59;3.40;;;1.03;;
66483;SDS011;53299;52.160;7.556;2022-12-07T05:08:24;4.20;;;1.10;;
66483;SDS011;53299;52.160;7.556;2022-12-07T05:10:49;3.30;;;1.07;;
66483;SDS011;53299;52.160;7.556;2022-12-07T05:13:14;3.50;;;1.00;;
66483;SDS011;53299;52.160;7.556;2022-12-07T05:15:40;3.58;;;1.00;;
66483;SDS011;53299;52.160;7.556;2022-12-07T05:18:05;2.90;;;0.90;;
66483;SDS011;53299;52.160;7.556;2022-12-07T05:20:31;3.37;;;1.10;;
66483;SDS011;53299;52.160;7.556;2022-12-07T05:22:56;3.73;;;1.00;;
66483;SDS011;53299;52.160;7.556;2022-12-07T05:25:21;3.43;;;1.00;;
66483;SDS011;53299;52.160;7.556;2022-12-07T05:27:46;2.70;;;0.90;;
66483;SDS011;53299;52.160;7.556;2022-12-07T05:30:12;3.53;;;1.10;;
66483;SDS011;53299;52.160;7.556;2022-12-07T05:32:37;3.20;;;1.00;;
66483;SDS011;53299;52.160;7.556;2022-12-07T05:35:02;3.57;;;1.10;;
66483;SDS011;53299;52.160;7.556;2022-12-07T05:37:28;2.57;;;0.90;;
66483;SDS011;53299;52.160;7.556;2022-12-07T05:39:53;3.70;;;1.10;;
66483;SDS011;53299;52.160;7.556;2022-12-07T05:42:18;2.70;;;1.00;;
66483;SDS011;53299;52.160;7.556;2022-12-07T05:44:44;2.93;;;1.00;;
66483;SDS011;53299;52.160;7.556;2022-12-07T05:47:11;4.18;;;1.17;;
66483;SDS011;53299;52.160;7.556;2022-12-07T05:49:37;3.87;;;1.23;;
66483;SDS011;53299;52.160;7.556;2022-12-07T05:52:03;3.73;;;1.10;;
66483;SDS011;53299;52.160;7.556;2022-12-07T05:54:29;3.40;;;1.05;;
66483;SDS011;53299;52.160;7.556;2022-12-07T05:56:54;3.50;;;1.00;;
66483;SDS011;53299;52.160;7.556;2022-12-07T05:59:19;4.55;;;1.13;;
66483;SDS011;53299;52.160;7.556;2022-12-07T06:01:45;3.63;;;1.10;;
66483;SDS011;53299;52.160;7.556;2022-12-07T06:04:10;3.43;;;1.23;;
66483;SDS011;53299;52.160;7.556;2022-12-07T06:06:35;3.20;;;1.00;;
66483;SDS011;53299;52.160;7.556;2022-12-07T06:09:01;4.03;;;1.07;;
66483;SDS011;53299;52.160;7.556;2022-12-07T06:11:27;3.65;;;1.23;;
66483;SDS011;53299;52.160;7.556;2022-12-07T06:13:52;3.20;;;1.00;;
66483;SDS011;53299;52.160;7.556;2022-12-07T06:16:17;4.60;;;1.20;;
66483;SDS011;53299;52.160;7.556;2022-12-07T06:18:43;3.77;;;1.00;;
66483;SDS011;53299;52.160;7.556;2022-12-07T06:21:08;3.13;;;0.90;;
66483;SDS011;53299;52.160;7.556;2022-12-07T06:23:33;4.33;;;1.27;;
66483;SDS011;53299;52.160;7.556;2022-12-07T06:25:58;2.80;;;1.00;;
66483;SDS011;53299;52.160;7.556;2022-12-07T06:28:24;3.43;;;0.90;;
66483;SDS011;53299;52.160;7.556;2022-12-07T06:30:56;4.43;;;1.37;;
66483;SDS011;53299;52.160;7.556;2022-12-07T06:33:23;3.88;;;1.20;;
66483;SDS011;53299;52.160;7.556;2022-12-07T06:35:48;3.97;;;1.17;;
66483;SDS011;53299;52.160;7.556;2022-12-07T06:38:13;4.43;;;1.00;;
66483;SDS011;53299;52.160;7.556;2022-12-07T06:40:38;3.53;;;1.10;;
66483;SDS011;53299;52.160;7.556;2022-12-07T06:43:04;3.87;;;1.40;;
66483;SDS011;53299;52.160;7.556;2022-12-07T06:45:29;3.97;;;1.10;;
66483;SDS011;53299;52.160;7.556;2022-12-07T06:47:54;5.47;;;1.33;;
66483;SDS011;53299;52.160;7.556;2022-12-07T06:50:19;4.60;;;1.20;;
66483;SDS011;53299;52.160;7.556;2022-12-07T06:52:45;4.17;;;1.23;;
66483;SDS011;53299;52.160;7.556;2022-12-07T06:55:10;3.40;;;1.10;;
66483;SDS011;53299;52.160;7.556;2022-12-07T06:57:35;3.53;;;1.13;;
66483;SDS011;53299;52.160;7.556;2022-12-07T07:00:00;4.70;;;1.20;;
66483;SDS011;53299;52.160;7.556;2022-12-07T07:02:26;3.70;;;1.30;;
66483;SDS011;53299;52.160;7.556;2022-12-07T07:04:51;4.30;;;1.30;;
66483;SDS011;53299;52.160;7.556;2022-12-07T07:07:16;3.77;;;1.40;;
66483;SDS011;53299;52.160;7.556;2022-12-07T07:09:41;4.93;;;1.30;;
66483;SDS011;53299;52.160;7.556;2022-12-07T07:12:07;3.93;;;1.30;;
66483;SDS011;53299;52.160;7.556;2022-12-07T07:14:32;4.15;;;1.23;;
66483;SDS011;53299;52.160;7.556;2022-12-07T07:16:57;3.90;;;1.20;;
66483;SDS011;53299;52.160;7.556;2022-12-07T07:19:23;4.47;;;1.27;;
66483;SDS011;53299;52.160;7.556;2022-12-07T07:21:48;4.73;;;1.50;;
66483;SDS011;53299;52.160;7.556;2022-12-07T07:24:13;5.50;;;1.20;;
66483;SDS011;53299;52.160;7.556;2022-12-07T07:26:38;4.43;;;1.40;;
66483;SDS011;53299;52.160;7.556;2022-12-07T07:29:03;3.73;;;1.10;;
66483;SDS011;53299;52.160;7.556;2022-12-07T07:31:29;4.20;;;1.37;;
66483;SDS011;53299;52.160;7.556;2022-12-07T07:33:54;4.67;;;1.30;;
66483;SDS011;53299;52.160;7.556;2022-12-07T07:36:19;4.43;;;1.10;;
66483;SDS011;53299;52.160;7.556;2022-12-07T07:38:44;3.90;;;1.20;;
66483;SDS011;53299;52.160;7.556;2022-12-07T07:41:10;4.30;;;1.10;;
66483;SDS011;53299;52.160;7.556;2022-12-07T07:43:35;3.60;;;1.00;;
66483;SDS011;53299;52.160;7.556;2022-12-07T07:46:00;4.20;;;1.30;;
66483;SDS011;53299;52.160;7.556;2022-12-07T07:48:25;3.27;;;1.10;;
66483;SDS011;53299;52.160;7.556;2022-12-07T07:50:51;4.00;;;1.30;;
66483;SDS011;53299;52.160;7.556;2022-12-07T07:53:16;3.30;;;1.00;;
66483;SDS011;53299;52.160;7.556;2022-12-07T07:55:46;4.60;;;1.50;;
66483;SDS011;53299;52.160;7.556;2022-12-07T07:58:15;5.82;;;1.25;;
66483;SDS011;53299;52.160;7.556;2022-12-07T08:00:40;5.00;;;1.20;;
66483;SDS011;53299;52.160;7.556;2022-12-07T08:03:05;4.03;;;1.30;;
66483;SDS011;53299;52.160;7.556;2022-12-07T08:05:31;3.93;;;1.30;;
66483;SDS011;53299;52.160;7.556;2022-12-07T08:07:57;3.97;;;1.10;;
66483;SDS011;53299;52.160;7.556;2022-12-07T08:10:22;4.47;;;1.20;;
66483;SDS011;53299;52.160;7.556;2022-12-07T08:12:47;3.73;;;1.10;;
66483;SDS011;53299;52.160;7.556;2022-12-07T08:15:13;5.10;;;1.40;;
66483;SDS011;53299;52.160;7.556;2022-12-07T08:17:38;4.63;;;1.10;;
66483;SDS011;53299;52.160;7.556;2022-12-07T08:20:03;3.90;;;1.00;;
66483;SDS011;53299;52.160;7.556;2022-12-07T08:22:29;4.35;;;1.10;;
66483;SDS011;53299;52.160;7.556;2022-12-07T08:24:54;4.03;;;1.20;;
66483;SDS011;53299;52.160;7.556;2022-12-07T08:27:20;4.37;;;1.20;;
66483;SDS011;53299;52.160;7.556;2022-12-07T08:29:45;4.50;;;1.20;;
66483;SDS011;53299;52.160;7.556;2022-12-07T08:32:10;4.93;;;1.20;;
66483;SDS011;53299;52.160;7.556;2022-12-07T08:34:35;4.50;;;1.23;;
66483;SDS011;53299;52.160;7.556;2022-12-07T08:37:01;5.67;;;1.10;;
66483;SDS011;53299;52.160;7.556;2022-12-07T08:39:26;4.10;;;1.20;;
66483;SDS011;53299;52.160;7.556;2022-12-07T08:41:51;3.57;;;1.10;;
66483;SDS011;53299;52.160;7.556;2022-12-07T08:44:16;5.93;;;1.40;;
66483;SDS011;53299;52.160;7.556;2022-12-07T08:46:44;4.20;;;1.17;;
66483;SDS011;53299;52.160;7.556;2022-12-07T08:49:18;3.50;;;1.00;;
66483;SDS011;53299;52.160;7.556;2022-12-07T08:51:47;4.35;;;1.20;;
66483;SDS011;53299;52.160;7.556;2022-12-07T08:54:14;3.97;;;1.00;;
66483;SDS011;53299;52.160;7.556;2022-12-07T08:56:41;3.83;;;1.02;;
66483;SDS011;53299;52.160;7.556;2022-12-07T08:59:07;3.70;;;1.15;;
66483;SDS011;53299;52.160;7.556;2022-12-07T09:01:33;4.18;;;1.10;;
66483;SDS011;53299;52.160;7.556;2022-12-07T09:03:59;5.47;;;1.23;;
66483;SDS011;53299;52.160;7.556;2022-12-07T09:06:24;4.53;;;1.20;;
66483;SDS011;53299;52.160;7.556;2022-12-07T09:08:51;4.45;;;1.17;;
66483;SDS011;53299;52.160;7.556;2022-12-07T09:11:20;5.57;;;1.20;;
66483;SDS011;53299;52.160;7.556;2022-12-07T09:13:45;5.23;;;1.40;;
66483;SDS011;53299;52.160;7.556;2022-12-07T09:16:10;4.13;;;1.37;;
66483;SDS011;53299;52.160;7.556;2022-12-07T09:18:36;3.50;;;1.20;;
66483;SDS011;53299;52.160;7.556;2022-12-07T09:21:01;5.17;;;1.10;;
66483;SDS011;53299;52.160;7.556;2022-12-07T09:23:26;4.37;;;1.20;;
66483;SDS011;53299;52.160;7.556;2022-12-07T09:25:51;3.57;;;1.10;;
66483;SDS011;53299;52.160;7.556;2022-12-07T09:28:17;3.93;;;1.10;;
66483;SDS011;53299;52.160;7.556;2022-12-07T09:30:45;4.63;;;1.30;;
66483;SDS011;53299;52.160;7.556;2022-12-07T09:33:12;3.75;;;0.98;;
66483;SDS011;53299;52.160;7.556;2022-12-07T09:35:37;5.73;;;1.37;;
66483;SDS011;53299;52.160;7.556;2022-12-07T09:38:02;3.60;;;1.10;;
66483;SDS011;53299;52.160;7.556;2022-12-07T09:40:28;4.40;;;1.00;;
66483;SDS011;53299;52.160;7.556;2022-12-07T09:42:53;5.67;;;1.13;;
66483;SDS011;53299;52.160;7.556;2022-12-07T09:45:24;4.40;;;1.20;;
66483;SDS011;53299;52.160;7.556;2022-12-07T09:47:55;3.90;;;1.20;;
66483;SDS011;53299;52.160;7.556;2022-12-07T09:50:21;4.00;;;1.20;;
66483;SDS011;53299;52.160;7.556;2022-12-07T09:52:49;3.47;;;1.20;;
66483;SDS011;53299;52.160;7.556;2022-12-07T09:55:17;4.77;;;1.10;;
66483;SDS011;53299;52.160;7.556;2022-12-07T09:57:47;5.00;;;1.33;;
66483;SDS011;53299;52.160;7.556;2022-12-07T10:00:14;4.53;;;1.30;;
66483;SDS011;53299;52.160;7.556;2022-12-07T10:02:42;4.27;;;1.20;;
66483;SDS011;53299;52.160;7.556;2022-12-07T10:05:36;4.05;;;1.08;;
66483;SDS011;53299;52.160;7.556;2022-12-07T10:08:07;4.35;;;1.00;;
66483;SDS011;53299;52.160;7.556;2022-12-07T10:10:36;4.47;;;1.20;;
66483;SDS011;53299;52.160;7.556;2022-12-07T10:13:02;5.60;;;1.13;;
66483;SDS011;53299;52.160;7.556;2022-12-07T10:15:43;4.40;;;1.20;;
66483;SDS011;53299;52.160;7.556;2022-12-07T10:20:46;5.33;;;1.17;;
66483;SDS011;53299;52.160;7.556;2022-12-07T10:23:16;4.55;;;1.10;;
66483;SDS011;53299;52.160;7.556;2022-12-07T10:25:43;4.80;;;1.20;;
66483;SDS011;53299;52.160;7.556;2022-12-07T10:28:16;4.25;;;1.30;;
66483;SDS011;53299;52.160;7.556;2022-12-07T10:30:59;4.28;;;1.10;;
66483;SDS011;53299;52.160;7.556;2022-12-07T10:35:54;3.92;;;1.15;;
66483;SDS011;53299;52.160;7.556;2022-12-07T10:38:20;3.17;;;1.02;;
66483;SDS011;53299;52.160;7.556;2022-12-07T10:40:45;3.90;;;1.20;;
66483;SDS011;53299;52.160;7.556;2022-12-07T10:48:18;4.20;;;1.20;;
66483;SDS011;53299;52.160;7.556;2022-12-07T10:50:56;6.07;;;1.88;;
66483;SDS011;53299;52.160;7.556;2022-12-07T10:56:15;217.30;;;91.57;;
66483;SDS011;53299;52.160;7.556;2022-12-07T10:58:55;456.23;;;164.98;;
66483;SDS011;53299;52.160;7.556;2022-12-07T11:01:41;188.00;;;74.47;;
66483;SDS011;53299;52.160;7.556;2022-12-07T11:04:31;78.50;;;27.77;;
66483;SDS011;53299;52.160;7.556;2022-12-07T11:12:54;34.00;;;13.30;;
66483;SDS011;53299;52.160;7.556;2022-12-07T11:21:30;28.95;;;12.45;;
66483;SDS011;53299;52.160;7.556;2022-12-07T11:35:05;20.58;;;8.98;;
66483;SDS011;53299;52.160;7.556;2022-12-07T11:37:36;22.50;;;7.80;;
66483;SDS011;53299;52.160;7.556;2022-12-07T11:40:05;21.83;;;7.75;;
66483;SDS011;53299;52.160;7.556;2022-12-07T11:42:51;18.80;;;7.65;;
66483;SDS011;53299;52.160;7.556;2022-12-07T11:45:22;19.55;;;7.10;;
66483;SDS011;53299;52.160;7.556;2022-12-07T11:48:02;15.50;;;6.90;;
66483;SDS011;53299;52.160;7.556;2022-12-07T11:55:52;16.27;;;6.40;;
66483;SDS011;53299;52.160;7.556;2022-12-07T12:01:13;13.13;;;5.03;;
66483;SDS011;53299;52.160;7.556;2022-12-07T12:06:28;13.15;;;5.00;;
66483;SDS011;53299;52.160;7.556;2022-12-07T12:09:00;12.17;;;4.70;;
66483;SDS011;53299;52.160;7.556;2022-12-07T12:27:53;8.85;;;3.45;;
66483;SDS011;53299;52.160;7.556;2022-12-07T12:30:35;11.25;;;3.67;;
66483;SDS011;53299;52.160;7.556;2022-12-07T12:33:03;10.25;;;3.30;;
66483;SDS011;53299;52.160;7.556;2022-12-07T12:35:36;11.87;;;3.60;;
66483;SDS011;53299;52.160;7.556;2022-12-07T12:38:25;9.60;;;3.22;;
66483;SDS011;53299;52.160;7.556;2022-12-07T12:40:51;11.80;;;3.30;;
66483;SDS011;53299;52.160;7.556;2022-12-07T12:48:55;10.38;;;3.05;;
66483;SDS011;53299;52.160;7.556;2022-12-07T12:51:39;7.77;;;2.40;;
66483;SDS011;53299;52.160;7.556;2022-12-07T12:54:22;7.45;;;2.30;;
66483;SDS011;53299;52.160;7.556;2022-12-07T12:57:00;8.15;;;2.60;;
66483;SDS011;53299;52.160;7.556;2022-12-07T13:31:33;7.68;;;2.00;;
66483;SDS011;53299;52.160;7.556;2022-12-07T13:34:01;7.17;;;2.03;;
66483;SDS011;53299;52.160;7.556;2022-12-07T13:36:29;6.10;;;1.80;;
66483;SDS011;53299;52.160;7.556;2022-12-07T13:39:00;6.45;;;1.90;;
66483;SDS011;53299;52.160;7.556;2022-12-07T13:41:35;7.10;;;1.63;;
66483;SDS011;53299;52.160;7.556;2022-12-07T13:44:18;6.50;;;1.93;;
66483;SDS011;53299;52.160;7.556;2022-12-07T13:49:38;5.68;;;1.60;;
66483;SDS011;53299;52.160;7.556;2022-12-07T13:52:13;5.70;;;1.87;;
66483;SDS011;53299;52.160;7.556;2022-12-07T13:54:48;6.65;;;1.90;;
66483;SDS011;53299;52.160;7.556;2022-12-07T13:57:20;6.85;;;1.85;;
66483;SDS011;53299;52.160;7.556;2022-12-07T13:59:46;6.45;;;1.73;;
66483;SDS011;53299;52.160;7.556;2022-12-07T14:02:25;5.07;;;1.53;;
66483;SDS011;53299;52.160;7.556;2022-12-07T14:04:51;6.15;;;1.60;;
66483;SDS011;53299;52.160;7.556;2022-12-07T14:07:34;6.78;;;1.88;;
66483;SDS011;53299;52.160;7.556;2022-12-07T14:10:03;6.37;;;1.80;;
66483;SDS011;53299;52.160;7.556;2022-12-07T14:12:31;6.53;;;1.65;;
66483;SDS011;53299;52.160;7.556;2022-12-07T14:14:58;6.68;;;1.77;;
66483;SDS011;53299;52.160;7.556;2022-12-07T14:17:26;5.72;;;1.63;;
66483;SDS011;53299;52.160;7.556;2022-12-07T14:19:55;5.10;;;1.58;;
66483;SDS011;53299;52.160;7.556;2022-12-07T14:24:50;6.50;;;1.70;;
66483;SDS011;53299;52.160;7.556;2022-12-07T14:27:23;5.72;;;1.90;;
66483;SDS011;53299;52.160;7.556;2022-12-07T14:29:49;9.65;;;2.08;;
66483;SDS011;53299;52.160;7.556;2022-12-07T14:32:18;7.67;;;1.83;;
66483;SDS011;53299;52.160;7.556;2022-12-07T14:34:56;7.40;;;1.58;;
66483;SDS011;53299;52.160;7.556;2022-12-07T14:37:27;8.57;;;1.60;;
66483;SDS011;53299;52.160;7.556;2022-12-07T14:39:53;6.82;;;1.52;;
66483;SDS011;53299;52.160;7.556;2022-12-07T14:42:18;6.70;;;1.70;;
66483;SDS011;53299;52.160;7.556;2022-12-07T14:44:45;8.25;;;1.50;;
66483;SDS011;53299;52.160;7.556;2022-12-07T14:47:10;5.73;;;1.60;;
66483;SDS011;53299;52.160;7.556;2022-12-07T14:49:35;6.03;;;1.58;;
66483;SDS011;53299;52.160;7.556;2022-12-07T14:52:01;6.57;;;1.60;;
66483;SDS011;53299;52.160;7.556;2022-12-07T14:54:26;8.13;;;1.50;;
66483;SDS011;53299;52.160;7.556;2022-12-07T14:56:55;5.80;;;1.40;;
66483;SDS011;53299;52.160;7.556;2022-12-07T14:59:20;6.17;;;1.50;;
66483;SDS011;53299;52.160;7.556;2022-12-07T15:01:45;6.27;;;1.40;;
66483;SDS011;53299;52.160;7.556;2022-12-07T15:04:10;6.30;;;1.50;;
66483;SDS011;53299;52.160;7.556;2022-12-07T15:06:36;6.43;;;1.50;;
66483;SDS011;53299;52.160;7.556;2022-12-07T15:09:01;5.07;;;1.60;;
66483;SDS011;53299;52.160;7.556;2022-12-07T15:11:27;5.07;;;1.35;;
66483;SDS011;53299;52.160;7.556;2022-12-07T15:13:52;5.23;;;1.40;;
66483;SDS011;53299;52.160;7.556;2022-12-07T15:16:19;4.00;;;1.40;;
66483;SDS011;53299;52.160;7.556;2022-12-07T15:18:45;4.38;;;1.30;;
66483;SDS011;53299;52.160;7.556;2022-12-07T15:21:12;5.37;;;1.40;;
66483;SDS011;53299;52.160;7.556;2022-12-07T15:23:39;6.25;;;1.50;;
66483;SDS011;53299;52.160;7.556;2022-12-07T15:26:04;4.73;;;1.20;;
66483;SDS011;53299;52.160;7.556;2022-12-07T15:28:29;5.67;;;1.40;;
66483;SDS011;53299;52.160;7.556;2022-12-07T15:30:55;5.20;;;1.30;;
66483;SDS011;53299;52.160;7.556;2022-12-07T15:33:20;4.07;;;1.37;;
66483;SDS011;53299;52.160;7.556;2022-12-07T15:35:45;4.80;;;1.20;;
66483;SDS011;53299;52.160;7.556;2022-12-07T15:38:11;5.93;;;1.60;;
66483;SDS011;53299;52.160;7.556;2022-12-07T15:40:36;4.03;;;1.20;;
66483;SDS011;53299;52.160;7.556;2022-12-07T15:43:02;5.40;;;1.37;;
66483;SDS011;53299;52.160;7.556;2022-12-07T15:45:27;5.40;;;1.50;;
66483;SDS011;53299;52.160;7.556;2022-12-07T15:47:53;4.43;;;1.30;;
66483;SDS011;53299;52.160;7.556;2022-12-07T15:50:18;4.30;;;1.40;;
66483;SDS011;53299;52.160;7.556;2022-12-07T15:52:43;5.23;;;1.40;;
66483;SDS011;53299;52.160;7.556;2022-12-07T15:55:09;4.90;;;1.40;;
66483;SDS011;53299;52.160;7.556;2022-12-07T15:57:35;4.40;;;1.40;;
66483;SDS011;53299;52.160;7.556;2022-12-07T16:00:02;4.07;;;1.10;;
66483;SDS011;53299;52.160;7.556;2022-12-07T16:02:28;3.78;;;1.20;;
66483;SDS011;53299;52.160;7.556;2022-12-07T16:04:54;4.23;;;1.20;;
66483;SDS011;53299;52.160;7.556;2022-12-07T16:07:19;4.27;;;1.13;;
66483;SDS011;53299;52.160;7.556;2022-12-07T16:09:45;4.30;;;1.37;;
66483;SDS011;53299;52.160;7.556;2022-12-07T16:12:11;5.03;;;1.40;;
66483;SDS011;53299;52.160;7.556;2022-12-07T16:14:38;5.55;;;1.70;;
66483;SDS011;53299;52.160;7.556;2022-12-07T16:17:04;5.30;;;1.20;;
66483;SDS011;53299;52.160;7.556;2022-12-07T16:19:30;4.40;;;1.40;;
66483;SDS011;53299;52.160;7.556;2022-12-07T16:21:56;4.68;;;1.50;;
66483;SDS011;53299;52.160;7.556;2022-12-07T16:24:21;3.93;;;1.20;;
66483;SDS011;53299;52.160;7.556;2022-12-07T16:26:47;4.18;;;1.30;;
66483;SDS011;53299;52.160;7.556;2022-12-07T16:29:12;4.23;;;1.40;;
66483;SDS011;53299;52.160;7.556;2022-12-07T16:31:38;5.43;;;1.40;;
66483;SDS011;53299;52.160;7.556;2022-12-07T16:34:04;3.97;;;1.30;;
66483;SDS011;53299;52.160;7.556;2022-12-07T16:36:29;4.33;;;1.30;;
66483;SDS011;53299;52.160;7.556;2022-12-07T16:38:55;4.97;;;1.43;;
66483;SDS011;53299;52.160;7.556;2022-12-07T16:41:20;4.50;;;1.27;;
66483;SDS011;53299;52.160;7.556;2022-12-07T16:43:45;5.23;;;1.47;;
66483;SDS011;53299;52.160;7.556;2022-12-07T16:46:11;4.03;;;1.40;;
66483;SDS011;53299;52.160;7.556;2022-12-07T16:48:36;4.00;;;1.30;;
66483;SDS011;53299;52.160;7.556;2022-12-07T16:51:04;5.00;;;1.40;;
66483;SDS011;53299;52.160;7.556;2022-12-07T16:53:30;4.85;;;1.50;;
66483;SDS011;53299;52.160;7.556;2022-12-07T16:55:56;4.50;;;1.33;;
66483;SDS011;53299;52.160;7.556;2022-12-07T16:58:21;4.50;;;1.47;;
66483;SDS011;53299;52.160;7.556;2022-12-07T17:00:46;5.17;;;1.50;;
66483;SDS011;53299;52.160;7.556;2022-12-07T17:03:12;3.87;;;1.20;;
66483;SDS011;53299;52.160;7.556;2022-12-07T17:05:41;4.40;;;1.43;;
66483;SDS011;53299;52.160;7.556;2022-12-07T17:08:08;4.35;;;1.27;;
66483;SDS011;53299;52.160;7.556;2022-12-07T17:10:35;5.00;;;1.60;;
66483;SDS011;53299;52.160;7.556;2022-12-07T17:13:02;4.68;;;1.27;;
66483;SDS011;53299;52.160;7.556;2022-12-07T17:15:28;4.63;;;1.50;;
66483;SDS011;53299;52.160;7.556;2022-12-07T17:17:57;4.83;;;1.50;;
66483;SDS011;53299;52.160;7.556;2022-12-07T17:20:24;4.38;;;1.50;;